sensor_id;sensor_type;location;lat;lon;timestamp;pressure;altitude;pressure_sealevel;temperature;humidity
45991;BME280;31721;41.740;-88.000;2023-02-10T00:01:55;98460.15;;;0.96;68.74
45991;BME280;31721;41.740;-88.000;2023-02-10T00:04:23;98482.47;;;0.90;68.74
45991;BME280;31721;41.740;-88.000;2023-02-10T00:06:51;98502.64;;;0.81;68.92
45991;BME280;31721;41.740;-88.000;2023-02-10T00:09:19;98507.29;;;1.14;68.59
45991;BME280;31721;41.740;-88.000;2023-02-10T00:11:46;98517.98;;;1.11;68.48
45991;BME280;31721;41.740;-88.000;2023-02-10T00:14:16;98535.67;;;0.84;68.83
45991;BME280;31721;41.740;-88.000;2023-02-10T00:16:44;98541.65;;;0.66;68.74
45991;BME280;31721;41.740;-88.000;2023-02-10T00:19:12;98545.20;;;0.78;69.13
45991;BME280;31721;41.740;-88.000;2023-02-10T00:21:40;98549.32;;;0.92;68.79
45991;BME280;31721;41.740;-88.000;2023-02-10T00:24:08;98562.60;;;0.64;68.83
45991;BME280;31721;41.740;-88.000;2023-02-10T00:26:36;98568.43;;;0.05;70.61
45991;BME280;31721;41.740;-88.000;2023-02-10T00:29:04;98581.35;;;0.06;70.79
45991;BME280;31721;41.740;-88.000;2023-02-10T00:31:32;98593.22;;;0.39;70.35
45991;BME280;31721;41.740;-88.000;2023-02-10T00:34:00;98607.84;;;0.78;69.52
45991;BME280;31721;41.740;-88.000;2023-02-10T00:36:28;98618.04;;;0.32;70.39
45991;BME280;31721;41.740;-88.000;2023-02-10T00:38:56;98620.67;;;0.68;69.83
45991;BME280;31721;41.740;-88.000;2023-02-10T00:41:24;98625.40;;;0.60;69.76
45991;BME280;31721;41.740;-88.000;2023-02-10T00:43:52;98626.99;;;1.02;69.29
45991;BME280;31721;41.740;-88.000;2023-02-10T00:46:21;98636.64;;;0.65;70.15
45991;BME280;31721;41.740;-88.000;2023-02-10T00:48:49;98635.53;;;0.48;70.26
45991;BME280;31721;41.740;-88.000;2023-02-10T00:51:17;98640.73;;;0.86;69.68
45991;BME280;31721;41.740;-88.000;2023-02-10T00:53:45;98648.58;;;0.27;70.84
45991;BME280;31721;41.740;-88.000;2023-02-10T00:56:13;98655.04;;;0.67;70.19
45991;BME280;31721;41.740;-88.000;2023-02-10T00:58:41;98658.58;;;0.67;70.37
45991;BME280;31721;41.740;-88.000;2023-02-10T01:01:09;98649.94;;;0.67;70.35
45991;BME280;31721;41.740;-88.000;2023-02-10T01:03:38;98667.51;;;1.01;69.68
45991;BME280;31721;41.740;-88.000;2023-02-10T01:06:07;98673.93;;;1.32;69.51
45991;BME280;31721;41.740;-88.000;2023-02-10T01:08:35;98681.33;;;1.16;69.39
45991;BME280;31721;41.740;-88.000;2023-02-10T01:11:05;98693.19;;;0.82;69.79
45991;BME280;31721;41.740;-88.000;2023-02-10T01:13:33;98708.74;;;0.62;70.05
45991;BME280;31721;41.740;-88.000;2023-02-10T01:16:04;98721.77;;;1.05;69.62
45991;BME280;31721;41.740;-88.000;2023-02-10T01:18:33;98734.02;;;0.93;69.73
45991;BME280;31721;41.740;-88.000;2023-02-10T01:21:06;98750.69;;;0.56;70.58
45991;BME280;31721;41.740;-88.000;2023-02-10T01:23:35;98765.04;;;1.06;69.54
45991;BME280;31721;41.740;-88.000;2023-02-10T01:26:04;98777.05;;;0.98;69.73
45991;BME280;31721;41.740;-88.000;2023-02-10T01:28:31;98776.34;;;1.11;69.49
45991;BME280;31721;41.740;-88.000;2023-02-10T01:31:04;98772.39;;;1.29;68.92
45991;BME280;31721;41.740;-88.000;2023-02-10T01:33:33;98782.34;;;0.71;69.80
45991;BME280;31721;41.740;-88.000;2023-02-10T01:36:03;98786.37;;;0.76;70.01
45991;BME280;31721;41.740;-88.000;2023-02-10T01:38:31;98780.29;;;0.80;69.93
45991;BME280;31721;41.740;-88.000;2023-02-10T01:41:00;98789.26;;;0.67;70.08
45991;BME280;31721;41.740;-88.000;2023-02-10T01:43:28;98792.88;;;1.01;69.33
45991;BME280;31721;41.740;-88.000;2023-02-10T01:45:55;98795.15;;;0.86;69.31
45991;BME280;31721;41.740;-88.000;2023-02-10T01:48:25;98804.92;;;1.23;69.03
45991;BME280;31721;41.740;-88.000;2023-02-10T01:50:54;98814.58;;;1.27;68.79
45991;BME280;31721;41.740;-88.000;2023-02-10T01:53:25;98826.84;;;1.10;69.23
45991;BME280;31721;41.740;-88.000;2023-02-10T01:55:58;98830.72;;;1.27;68.82
45991;BME280;31721;41.740;-88.000;2023-02-10T01:58:32;98836.04;;;1.22;68.82
45991;BME280;31721;41.740;-88.000;2023-02-10T02:01:01;98832.19;;;1.10;68.87
45991;BME280;31721;41.740;-88.000;2023-02-10T02:03:29;98824.26;;;0.99;69.24
45991;BME280;31721;41.740;-88.000;2023-02-10T02:05:56;98826.34;;;1.01;69.08
45991;BME280;31721;41.740;-88.000;2023-02-10T02:08:25;98829.18;;;0.60;69.76
45991;BME280;31721;41.740;-88.000;2023-02-10T02:11:04;98843.95;;;0.75;69.48
45991;BME280;31721;41.740;-88.000;2023-02-10T02:13:51;98855.46;;;0.97;69.30
45991;BME280;31721;41.740;-88.000;2023-02-10T02:16:31;98860.90;;;0.67;69.29
45991;BME280;31721;41.740;-88.000;2023-02-10T02:19:10;98861.30;;;0.77;69.66
45991;BME280;31721;41.740;-88.000;2023-02-10T02:22:04;98869.79;;;0.72;69.78
45991;BME280;31721;41.740;-88.000;2023-02-10T02:24:59;98883.64;;;0.95;69.08
45991;BME280;31721;41.740;-88.000;2023-02-10T02:27:39;98880.11;;;1.26;69.02
45991;BME280;31721;41.740;-88.000;2023-02-10T02:30:52;98884.41;;;0.91;69.16
45991;BME280;31721;41.740;-88.000;2023-02-10T02:33:23;98891.15;;;1.16;68.87
45991;BME280;31721;41.740;-88.000;2023-02-10T02:35:59;98899.07;;;1.22;68.75
45991;BME280;31721;41.740;-88.000;2023-02-10T02:38:28;98909.50;;;0.99;68.77
45991;BME280;31721;41.740;-88.000;2023-02-10T02:40:56;98911.89;;;0.74;69.06
45991;BME280;31721;41.740;-88.000;2023-02-10T02:43:24;98908.62;;;1.17;68.69
45991;BME280;31721;41.740;-88.000;2023-02-10T02:45:58;98910.34;;;1.06;68.99
45991;BME280;31721;41.740;-88.000;2023-02-10T02:48:38;98923.68;;;1.02;68.59
45991;BME280;31721;41.740;-88.000;2023-02-10T02:51:16;98929.79;;;0.94;68.55
45991;BME280;31721;41.740;-88.000;2023-02-10T02:53:53;98932.96;;;1.15;68.81
45991;BME280;31721;41.740;-88.000;2023-02-10T02:56:30;98933.61;;;1.33;68.15
45991;BME280;31721;41.740;-88.000;2023-02-10T02:59:07;98933.24;;;1.43;68.30
45991;BME280;31721;41.740;-88.000;2023-02-10T03:01:41;98939.52;;;1.24;68.16
45991;BME280;31721;41.740;-88.000;2023-02-10T03:04:12;98947.25;;;1.59;67.84
45991;BME280;31721;41.740;-88.000;2023-02-10T03:06:41;98951.43;;;1.57;67.94
45991;BME280;31721;41.740;-88.000;2023-02-10T03:09:09;98957.43;;;0.98;67.82
45991;BME280;31721;41.740;-88.000;2023-02-10T03:11:37;98968.98;;;1.41;67.78
45991;BME280;31721;41.740;-88.000;2023-02-10T03:14:05;98972.52;;;1.55;67.76
45991;BME280;31721;41.740;-88.000;2023-02-10T03:16:33;98969.99;;;1.38;66.98
45991;BME280;31721;41.740;-88.000;2023-02-10T03:19:00;98974.20;;;1.38;67.27
45991;BME280;31721;41.740;-88.000;2023-02-10T03:21:28;98975.73;;;1.61;67.63
45991;BME280;31721;41.740;-88.000;2023-02-10T03:23:56;98977.52;;;1.84;67.32
45991;BME280;31721;41.740;-88.000;2023-02-10T03:26:24;98975.84;;;1.88;67.18
45991;BME280;31721;41.740;-88.000;2023-02-10T03:28:52;98979.75;;;1.51;67.08
45991;BME280;31721;41.740;-88.000;2023-02-10T03:31:20;98988.24;;;1.67;67.07
45991;BME280;31721;41.740;-88.000;2023-02-10T03:33:48;98990.51;;;1.56;66.81
45991;BME280;31721;41.740;-88.000;2023-02-10T03:36:16;98986.06;;;1.02;67.30
45991;BME280;31721;41.740;-88.000;2023-02-10T03:38:44;98997.05;;;1.61;66.99
45991;BME280;31721;41.740;-88.000;2023-02-10T03:41:12;98998.55;;;1.89;66.47
45991;BME280;31721;41.740;-88.000;2023-02-10T03:43:41;99006.14;;;1.90;66.61
45991;BME280;31721;41.740;-88.000;2023-02-10T03:46:09;99015.88;;;2.01;66.55
45991;BME280;31721;41.740;-88.000;2023-02-10T03:48:37;99014.98;;;2.14;66.27
45991;BME280;31721;41.740;-88.000;2023-02-10T03:51:07;99020.20;;;1.99;66.24
45991;BME280;31721;41.740;-88.000;2023-02-10T03:53:35;99022.75;;;2.07;66.07
45991;BME280;31721;41.740;-88.000;2023-02-10T03:56:04;99022.05;;;2.26;65.99
45991;BME280;31721;41.740;-88.000;2023-02-10T03:58:33;99036.17;;;2.14;65.24
45991;BME280;31721;41.740;-88.000;2023-02-10T04:01:08;99042.08;;;2.25;65.65
45991;BME280;31721;41.740;-88.000;2023-02-10T04:03:37;99046.45;;;2.42;65.34
45991;BME280;31721;41.740;-88.000;2023-02-10T04:06:05;99043.45;;;2.36;65.47
45991;BME280;31721;41.740;-88.000;2023-02-10T04:08:33;99051.90;;;2.39;65.37
45991;BME280;31721;41.740;-88.000;2023-02-10T04:11:01;99055.04;;;2.50;65.27
45991;BME280;31721;41.740;-88.000;2023-02-10T04:13:29;99052.71;;;2.41;65.31
45991;BME280;31721;41.740;-88.000;2023-02-10T04:16:01;99055.76;;;2.45;65.16
45991;BME280;31721;41.740;-88.000;2023-02-10T04:18:29;99058.49;;;2.77;64.53
45991;BME280;31721;41.740;-88.000;2023-02-10T04:20:58;99063.13;;;2.64;64.47
45991;BME280;31721;41.740;-88.000;2023-02-10T04:23:26;99066.58;;;2.67;64.12
45991;BME280;31721;41.740;-88.000;2023-02-10T04:25:54;99067.35;;;2.88;63.80
45991;BME280;31721;41.740;-88.000;2023-02-10T04:28:22;99069.19;;;2.67;63.92
45991;BME280;31721;41.740;-88.000;2023-02-10T04:30:51;99068.92;;;2.87;63.53
45991;BME280;31721;41.740;-88.000;2023-02-10T04:33:20;99071.05;;;2.91;63.64
45991;BME280;31721;41.740;-88.000;2023-02-10T04:35:48;99076.77;;;3.11;62.97
45991;BME280;31721;41.740;-88.000;2023-02-10T04:38:16;99081.40;;;3.12;62.77
45991;BME280;31721;41.740;-88.000;2023-02-10T04:40:44;99085.99;;;2.89;62.99
45991;BME280;31721;41.740;-88.000;2023-02-10T04:43:13;99085.84;;;2.86;63.01
45991;BME280;31721;41.740;-88.000;2023-02-10T04:45:43;99088.72;;;2.98;62.52
45991;BME280;31721;41.740;-88.000;2023-02-10T04:48:10;99093.12;;;3.22;62.23
45991;BME280;31721;41.740;-88.000;2023-02-10T04:50:39;99099.38;;;3.24;61.66
45991;BME280;31721;41.740;-88.000;2023-02-10T04:53:07;99110.82;;;3.35;61.44
45991;BME280;31721;41.740;-88.000;2023-02-10T04:55:35;99109.71;;;3.11;61.67
45991;BME280;31721;41.740;-88.000;2023-02-10T04:58:02;99116.08;;;3.07;61.68
45991;BME280;31721;41.740;-88.000;2023-02-10T05:00:30;99123.85;;;3.03;61.49
45991;BME280;31721;41.740;-88.000;2023-02-10T05:02:59;99124.51;;;2.88;61.77
45991;BME280;31721;41.740;-88.000;2023-02-10T05:05:27;99128.74;;;2.80;61.59
45991;BME280;31721;41.740;-88.000;2023-02-10T05:07:55;99131.73;;;2.88;61.64
45991;BME280;31721;41.740;-88.000;2023-02-10T05:10:23;99135.78;;;2.63;61.79
45991;BME280;31721;41.740;-88.000;2023-02-10T05:12:51;99139.43;;;2.67;61.87
45991;BME280;31721;41.740;-88.000;2023-02-10T05:15:18;99144.17;;;2.58;62.01
45991;BME280;31721;41.740;-88.000;2023-02-10T05:17:46;99147.66;;;2.54;62.13
45991;BME280;31721;41.740;-88.000;2023-02-10T05:20:14;99147.96;;;2.45;62.33
45991;BME280;31721;41.740;-88.000;2023-02-10T05:22:42;99156.31;;;2.43;62.31
45991;BME280;31721;41.740;-88.000;2023-02-10T05:25:10;99162.28;;;2.21;62.36
45991;BME280;31721;41.740;-88.000;2023-02-10T05:27:37;99170.32;;;2.19;62.62
45991;BME280;31721;41.740;-88.000;2023-02-10T05:30:07;99177.80;;;2.28;62.77
45991;BME280;31721;41.740;-88.000;2023-02-10T05:32:35;99187.52;;;1.92;62.81
45991;BME280;31721;41.740;-88.000;2023-02-10T05:35:03;99193.53;;;2.23;62.99
45991;BME280;31721;41.740;-88.000;2023-02-10T05:37:32;99204.49;;;2.17;63.01
45991;BME280;31721;41.740;-88.000;2023-02-10T05:40:00;99210.57;;;2.26;63.28
45991;BME280;31721;41.740;-88.000;2023-02-10T05:42:28;99208.69;;;2.17;63.49
45991;BME280;31721;41.740;-88.000;2023-02-10T05:44:55;99211.07;;;2.16;63.98
45991;BME280;31721;41.740;-88.000;2023-02-10T05:47:23;99209.62;;;1.89;64.30
45991;BME280;31721;41.740;-88.000;2023-02-10T05:49:51;99210.94;;;1.85;64.71
45991;BME280;31721;41.740;-88.000;2023-02-10T05:52:19;99210.97;;;1.56;64.46
45991;BME280;31721;41.740;-88.000;2023-02-10T05:54:46;99215.12;;;1.53;64.74
45991;BME280;31721;41.740;-88.000;2023-02-10T05:57:14;99215.25;;;1.57;64.70
45991;BME280;31721;41.740;-88.000;2023-02-10T05:59:42;99221.38;;;1.39;64.78
45991;BME280;31721;41.740;-88.000;2023-02-10T06:02:10;99223.74;;;1.50;64.99
45991;BME280;31721;41.740;-88.000;2023-02-10T06:04:37;99233.14;;;1.53;64.85
45991;BME280;31721;41.740;-88.000;2023-02-10T06:07:05;99235.87;;;1.37;65.18
45991;BME280;31721;41.740;-88.000;2023-02-10T06:09:33;99240.08;;;1.21;65.03
45991;BME280;31721;41.740;-88.000;2023-02-10T06:12:01;99235.91;;;1.38;65.35
45991;BME280;31721;41.740;-88.000;2023-02-10T06:14:28;99240.22;;;1.69;64.92
45991;BME280;31721;41.740;-88.000;2023-02-10T06:16:56;99241.92;;;1.39;65.04
45991;BME280;31721;41.740;-88.000;2023-02-10T06:19:23;99252.43;;;1.57;64.99
45991;BME280;31721;41.740;-88.000;2023-02-10T06:21:51;99260.73;;;1.66;64.88
45991;BME280;31721;41.740;-88.000;2023-02-10T06:24:19;99266.97;;;1.69;64.96
45991;BME280;31721;41.740;-88.000;2023-02-10T06:26:47;99272.23;;;1.87;64.74
45991;BME280;31721;41.740;-88.000;2023-02-10T06:29:15;99276.77;;;1.56;65.23
45991;BME280;31721;41.740;-88.000;2023-02-10T06:31:43;99270.16;;;1.58;65.11
45991;BME280;31721;41.740;-88.000;2023-02-10T06:34:12;99273.04;;;1.60;64.95
45991;BME280;31721;41.740;-88.000;2023-02-10T06:36:40;99272.50;;;1.36;65.15
45991;BME280;31721;41.740;-88.000;2023-02-10T06:39:08;99277.05;;;1.30;65.32
45991;BME280;31721;41.740;-88.000;2023-02-10T06:41:36;99281.70;;;1.42;65.28
45991;BME280;31721;41.740;-88.000;2023-02-10T06:44:04;99280.56;;;1.33;65.35
45991;BME280;31721;41.740;-88.000;2023-02-10T06:46:32;99283.45;;;1.46;65.37
45991;BME280;31721;41.740;-88.000;2023-02-10T06:49:00;99284.57;;;1.52;65.21
45991;BME280;31721;41.740;-88.000;2023-02-10T06:51:28;99286.49;;;1.42;65.12
45991;BME280;31721;41.740;-88.000;2023-02-10T06:53:55;99287.66;;;1.46;65.63
45991;BME280;31721;41.740;-88.000;2023-02-10T06:56:23;99292.69;;;1.52;65.74
45991;BME280;31721;41.740;-88.000;2023-02-10T06:58:51;99292.04;;;1.53;65.65
45991;BME280;31721;41.740;-88.000;2023-02-10T07:01:19;99293.93;;;1.63;65.48
45991;BME280;31721;41.740;-88.000;2023-02-10T07:03:47;99292.91;;;1.63;65.62
45991;BME280;31721;41.740;-88.000;2023-02-10T07:06:15;99295.62;;;1.65;65.59
45991;BME280;31721;41.740;-88.000;2023-02-10T07:08:42;99295.48;;;1.72;65.32
45991;BME280;31721;41.740;-88.000;2023-02-10T07:11:10;99298.95;;;1.94;64.77
45991;BME280;31721;41.740;-88.000;2023-02-10T07:13:38;99298.17;;;1.75;65.20
45991;BME280;31721;41.740;-88.000;2023-02-10T07:16:06;99304.32;;;1.65;65.21
45991;BME280;31721;41.740;-88.000;2023-02-10T07:18:34;99315.07;;;1.83;64.94
45991;BME280;31721;41.740;-88.000;2023-02-10T07:21:02;99318.93;;;1.70;65.21
45991;BME280;31721;41.740;-88.000;2023-02-10T07:23:30;99321.87;;;1.96;64.88
45991;BME280;31721;41.740;-88.000;2023-02-10T07:25:58;99324.67;;;1.94;64.87
45991;BME280;31721;41.740;-88.000;2023-02-10T07:28:26;99321.88;;;1.70;65.06
45991;BME280;31721;41.740;-88.000;2023-02-10T07:30:53;99323.19;;;2.02;64.80
45991;BME280;31721;41.740;-88.000;2023-02-10T07:33:21;99324.98;;;1.97;64.96
45991;BME280;31721;41.740;-88.000;2023-02-10T07:35:48;99321.37;;;1.78;65.15
45991;BME280;31721;41.740;-88.000;2023-02-10T07:38:16;99323.88;;;1.88;65.13
45991;BME280;31721;41.740;-88.000;2023-02-10T07:40:44;99320.99;;;1.91;65.30
45991;BME280;31721;41.740;-88.000;2023-02-10T07:43:13;99326.02;;;1.97;65.27
45991;BME280;31721;41.740;-88.000;2023-02-10T07:45:40;99333.57;;;1.95;65.11
45991;BME280;31721;41.740;-88.000;2023-02-10T07:48:08;99337.41;;;2.08;64.94
45991;BME280;31721;41.740;-88.000;2023-02-10T07:50:36;99342.95;;;1.97;65.07
45991;BME280;31721;41.740;-88.000;2023-02-10T07:53:04;99346.67;;;1.94;65.15
45991;BME280;31721;41.740;-88.000;2023-02-10T07:55:32;99340.87;;;2.01;65.01
45991;BME280;31721;41.740;-88.000;2023-02-10T07:58:00;99339.15;;;2.02;65.03
45991;BME280;31721;41.740;-88.000;2023-02-10T08:00:27;99346.06;;;2.18;65.06
45991;BME280;31721;41.740;-88.000;2023-02-10T08:02:55;99350.90;;;1.88;65.03
45991;BME280;31721;41.740;-88.000;2023-02-10T08:05:23;99353.31;;;1.95;65.00
45991;BME280;31721;41.740;-88.000;2023-02-10T08:07:51;99351.84;;;1.72;65.04
45991;BME280;31721;41.740;-88.000;2023-02-10T08:10:19;99359.35;;;1.94;64.87
45991;BME280;31721;41.740;-88.000;2023-02-10T08:12:47;99364.40;;;2.05;64.83
45991;BME280;31721;41.740;-88.000;2023-02-10T08:15:14;99365.01;;;2.02;64.92
45991;BME280;31721;41.740;-88.000;2023-02-10T08:17:42;99368.84;;;2.11;64.93
45991;BME280;31721;41.740;-88.000;2023-02-10T08:20:11;99373.38;;;2.11;64.65
45991;BME280;31721;41.740;-88.000;2023-02-10T08:22:38;99373.81;;;2.14;64.69
45991;BME280;31721;41.740;-88.000;2023-02-10T08:25:06;99378.38;;;2.11;64.40
45991;BME280;31721;41.740;-88.000;2023-02-10T08:27:34;99380.22;;;2.20;64.40
45991;BME280;31721;41.740;-88.000;2023-02-10T08:30:01;99388.80;;;2.25;64.04
45991;BME280;31721;41.740;-88.000;2023-02-10T08:32:29;99395.20;;;2.47;63.62
45991;BME280;31721;41.740;-88.000;2023-02-10T08:34:57;99399.00;;;2.73;63.03
45991;BME280;31721;41.740;-88.000;2023-02-10T08:37:24;99402.28;;;2.55;63.02
45991;BME280;31721;41.740;-88.000;2023-02-10T08:39:52;99397.59;;;2.36;63.07
45991;BME280;31721;41.740;-88.000;2023-02-10T08:42:20;99397.30;;;2.38;63.13
45991;BME280;31721;41.740;-88.000;2023-02-10T08:44:48;99390.12;;;2.19;63.05
45991;BME280;31721;41.740;-88.000;2023-02-10T08:47:15;99391.06;;;2.27;63.50
45991;BME280;31721;41.740;-88.000;2023-02-10T08:49:43;99395.94;;;2.21;63.43
45991;BME280;31721;41.740;-88.000;2023-02-10T08:52:11;99394.53;;;2.25;63.64
45991;BME280;31721;41.740;-88.000;2023-02-10T08:54:39;99395.85;;;2.17;63.65
45991;BME280;31721;41.740;-88.000;2023-02-10T08:57:07;99393.40;;;2.19;63.81
45991;BME280;31721;41.740;-88.000;2023-02-10T08:59:34;99387.74;;;2.29;63.56
45991;BME280;31721;41.740;-88.000;2023-02-10T09:02:03;99383.85;;;2.39;63.37
45991;BME280;31721;41.740;-88.000;2023-02-10T09:04:30;99387.17;;;2.37;63.37
45991;BME280;31721;41.740;-88.000;2023-02-10T09:06:58;99391.13;;;2.38;63.42
45991;BME280;31721;41.740;-88.000;2023-02-10T09:09:26;99391.45;;;2.59;62.91
45991;BME280;31721;41.740;-88.000;2023-02-10T09:11:54;99389.39;;;2.63;62.90
45991;BME280;31721;41.740;-88.000;2023-02-10T09:14:21;99393.27;;;2.48;62.98
45991;BME280;31721;41.740;-88.000;2023-02-10T09:16:49;99390.77;;;2.54;63.02
45991;BME280;31721;41.740;-88.000;2023-02-10T09:19:17;99394.06;;;2.58;62.45
45991;BME280;31721;41.740;-88.000;2023-02-10T09:21:45;99392.24;;;2.54;62.42
45991;BME280;31721;41.740;-88.000;2023-02-10T09:24:13;99394.41;;;2.54;62.50
45991;BME280;31721;41.740;-88.000;2023-02-10T09:26:41;99402.03;;;2.67;62.28
45991;BME280;31721;41.740;-88.000;2023-02-10T09:29:10;99404.98;;;2.69;62.10
45991;BME280;31721;41.740;-88.000;2023-02-10T09:31:38;99408.91;;;2.72;62.05
45991;BME280;31721;41.740;-88.000;2023-02-10T09:34:06;99410.85;;;2.94;61.32
45991;BME280;31721;41.740;-88.000;2023-02-10T09:36:33;99416.05;;;2.93;61.29
45991;BME280;31721;41.740;-88.000;2023-02-10T09:39:01;99425.40;;;2.75;61.39
45991;BME280;31721;41.740;-88.000;2023-02-10T09:41:41;99427.86;;;2.80;61.24
45991;BME280;31721;41.740;-88.000;2023-02-10T09:44:16;99426.78;;;2.73;61.16
45991;BME280;31721;41.740;-88.000;2023-02-10T09:46:56;99423.62;;;2.72;61.29
45991;BME280;31721;41.740;-88.000;2023-02-10T09:49:45;99425.04;;;2.70;61.33
45991;BME280;31721;41.740;-88.000;2023-02-10T09:52:22;99426.99;;;2.69;61.24
45991;BME280;31721;41.740;-88.000;2023-02-10T09:54:55;99430.26;;;2.34;61.53
45991;BME280;31721;41.740;-88.000;2023-02-10T09:57:30;99428.60;;;2.35;61.69
45991;BME280;31721;41.740;-88.000;2023-02-10T10:00:01;99436.67;;;2.25;62.02
45991;BME280;31721;41.740;-88.000;2023-02-10T10:02:32;99436.40;;;2.17;62.08
45991;BME280;31721;41.740;-88.000;2023-02-10T10:05:12;99433.81;;;2.32;62.37
45991;BME280;31721;41.740;-88.000;2023-02-10T10:07:47;99438.57;;;2.31;62.41
45991;BME280;31721;41.740;-88.000;2023-02-10T10:10:22;99436.21;;;2.26;62.46
45991;BME280;31721;41.740;-88.000;2023-02-10T10:12:52;99439.91;;;2.16;62.66
45991;BME280;31721;41.740;-88.000;2023-02-10T10:15:23;99440.30;;;2.28;62.82
45991;BME280;31721;41.740;-88.000;2023-02-10T10:18:01;99442.79;;;2.31;62.85
45991;BME280;31721;41.740;-88.000;2023-02-10T10:20:41;99447.60;;;2.21;63.00
45991;BME280;31721;41.740;-88.000;2023-02-10T10:23:25;99452.13;;;2.18;63.13
45991;BME280;31721;41.740;-88.000;2023-02-10T10:26:09;99456.28;;;2.34;63.12
45991;BME280;31721;41.740;-88.000;2023-02-10T10:28:46;99452.69;;;2.22;63.24
45991;BME280;31721;41.740;-88.000;2023-02-10T10:31:18;99457.44;;;2.23;63.24
45991;BME280;31721;41.740;-88.000;2023-02-10T10:33:50;99460.93;;;2.37;63.17
45991;BME280;31721;41.740;-88.000;2023-02-10T10:36:21;99464.35;;;2.40;63.16
45991;BME280;31721;41.740;-88.000;2023-02-10T10:38:52;99466.60;;;2.35;63.17
45991;BME280;31721;41.740;-88.000;2023-02-10T10:41:23;99466.82;;;2.13;63.21
45991;BME280;31721;41.740;-88.000;2023-02-10T10:43:55;99472.24;;;2.22;63.15
45991;BME280;31721;41.740;-88.000;2023-02-10T10:46:27;99479.01;;;2.37;63.30
45991;BME280;31721;41.740;-88.000;2023-02-10T10:48:58;99489.21;;;2.40;63.13
45991;BME280;31721;41.740;-88.000;2023-02-10T10:51:26;99493.23;;;2.33;63.10
45991;BME280;31721;41.740;-88.000;2023-02-10T10:53:55;99499.92;;;2.37;63.03
45991;BME280;31721;41.740;-88.000;2023-02-10T10:56:34;99504.05;;;2.37;63.24
45991;BME280;31721;41.740;-88.000;2023-02-10T10:59:12;99508.58;;;2.38;62.99
45991;BME280;31721;41.740;-88.000;2023-02-10T11:01:44;99515.26;;;2.50;63.06
45991;BME280;31721;41.740;-88.000;2023-02-10T11:04:14;99517.37;;;2.53;62.48
45991;BME280;31721;41.740;-88.000;2023-02-10T11:06:45;99517.01;;;2.55;62.55
45991;BME280;31721;41.740;-88.000;2023-02-10T11:09:21;99519.47;;;2.39;62.51
45991;BME280;31721;41.740;-88.000;2023-02-10T11:11:50;99521.61;;;2.43;62.45
45991;BME280;31721;41.740;-88.000;2023-02-10T11:14:24;99528.32;;;2.55;62.32
45991;BME280;31721;41.740;-88.000;2023-02-10T11:16:56;99531.89;;;2.60;62.17
45991;BME280;31721;41.740;-88.000;2023-02-10T11:19:27;99533.16;;;2.44;62.20
45991;BME280;31721;41.740;-88.000;2023-02-10T11:21:56;99538.77;;;2.55;61.81
45991;BME280;31721;41.740;-88.000;2023-02-10T11:24:26;99542.42;;;2.45;61.91
45991;BME280;31721;41.740;-88.000;2023-02-10T11:26:56;99545.39;;;2.46;61.85
45991;BME280;31721;41.740;-88.000;2023-02-10T11:29:24;99545.73;;;2.26;62.05
45991;BME280;31721;41.740;-88.000;2023-02-10T11:31:53;99548.02;;;2.29;61.96
45991;BME280;31721;41.740;-88.000;2023-02-10T11:34:25;99551.73;;;2.32;62.04
45991;BME280;31721;41.740;-88.000;2023-02-10T11:36:56;99552.39;;;2.15;61.98
45991;BME280;31721;41.740;-88.000;2023-02-10T11:39:28;99558.08;;;2.01;62.08
45991;BME280;31721;41.740;-88.000;2023-02-10T11:42:07;99562.32;;;1.82;61.73
45991;BME280;31721;41.740;-88.000;2023-02-10T11:44:35;99569.79;;;1.99;61.99
45991;BME280;31721;41.740;-88.000;2023-02-10T11:47:05;99565.90;;;1.88;62.18
45991;BME280;31721;41.740;-88.000;2023-02-10T11:49:43;99573.57;;;1.72;61.72
45991;BME280;31721;41.740;-88.000;2023-02-10T11:52:11;99577.52;;;1.82;62.15
45991;BME280;31721;41.740;-88.000;2023-02-10T11:54:40;99581.19;;;1.58;61.89
45991;BME280;31721;41.740;-88.000;2023-02-10T11:57:17;99583.35;;;1.51;61.55
45991;BME280;31721;41.740;-88.000;2023-02-10T11:59:58;99586.35;;;1.54;61.11
45991;BME280;31721;41.740;-88.000;2023-02-10T12:02:41;99594.28;;;1.60;61.37
45991;BME280;31721;41.740;-88.000;2023-02-10T12:05:24;99593.20;;;1.06;60.86
45991;BME280;31721;41.740;-88.000;2023-02-10T12:08:06;99596.31;;;0.86;60.22
45991;BME280;31721;41.740;-88.000;2023-02-10T12:10:41;99599.49;;;0.67;58.85
45991;BME280;31721;41.740;-88.000;2023-02-10T12:13:21;99604.76;;;0.03;59.57
45991;BME280;31721;41.740;-88.000;2023-02-10T12:15:59;99605.83;;;0.18;59.75
45991;BME280;31721;41.740;-88.000;2023-02-10T12:18:42;99604.65;;;-0.04;59.31
45991;BME280;31721;41.740;-88.000;2023-02-10T12:21:25;99606.05;;;0.00;58.90
45991;BME280;31721;41.740;-88.000;2023-02-10T12:24:07;99604.87;;;0.13;59.20
45991;BME280;31721;41.740;-88.000;2023-02-10T12:26:43;99607.78;;;-0.28;56.69
45991;BME280;31721;41.740;-88.000;2023-02-10T12:29:25;99610.63;;;-0.40;55.96
45991;BME280;31721;41.740;-88.000;2023-02-10T12:32:00;99611.12;;;-0.13;58.36
45991;BME280;31721;41.740;-88.000;2023-02-10T12:34:59;99615.58;;;0.09;58.43
45991;BME280;31721;41.740;-88.000;2023-02-10T12:37:39;99622.38;;;0.36;58.67
45991;BME280;31721;41.740;-88.000;2023-02-10T12:40:23;99623.10;;;0.60;58.80
45991;BME280;31721;41.740;-88.000;2023-02-10T12:43:01;99627.71;;;0.66;58.86
45991;BME280;31721;41.740;-88.000;2023-02-10T12:45:37;99632.57;;;0.74;58.66
45991;BME280;31721;41.740;-88.000;2023-02-10T12:48:20;99633.90;;;0.81;58.67
45991;BME280;31721;41.740;-88.000;2023-02-10T12:51:03;99635.99;;;0.85;58.42
45991;BME280;31721;41.740;-88.000;2023-02-10T12:53:38;99635.47;;;0.89;58.37
45991;BME280;31721;41.740;-88.000;2023-02-10T12:56:10;99641.22;;;0.92;58.25
45991;BME280;31721;41.740;-88.000;2023-02-10T12:58:44;99642.30;;;0.95;58.32
45991;BME280;31721;41.740;-88.000;2023-02-10T13:01:19;99648.29;;;0.92;58.15
45991;BME280;31721;41.740;-88.000;2023-02-10T13:03:49;99652.65;;;0.92;58.25
45991;BME280;31721;41.740;-88.000;2023-02-10T13:06:27;99655.28;;;0.86;57.78
45991;BME280;31721;41.740;-88.000;2023-02-10T13:09:00;99662.83;;;0.82;57.85